createdAt,value
2022-10-23T00:01:17.196Z,81.63
2022-10-23T00:03:46.238Z,81.58
2022-10-23T00:06:15.048Z,80.82
2022-10-23T00:08:43.773Z,80.08
2022-10-23T00:11:13.369Z,79.78
2022-10-23T00:13:41.747Z,80.02
2022-10-23T00:16:09.918Z,79.73
2022-10-23T00:18:38.603Z,79.20
2022-10-23T00:21:08.046Z,78.68
2022-10-23T00:23:36.466Z,78.84
2022-10-23T00:26:04.702Z,79.05
2022-10-23T00:28:32.633Z,79.91
2022-10-23T00:31:05.275Z,80.03
2022-10-23T00:33:33.384Z,80.39
2022-10-23T00:36:03.687Z,81.75
2022-10-23T00:38:31.787Z,83.27
2022-10-23T00:41:00.263Z,84.50
2022-10-23T00:43:30.017Z,85.96
2022-10-23T00:45:58.030Z,87.04
2022-10-23T00:48:26.912Z,88.28
2022-10-23T00:50:55.120Z,88.91
2022-10-23T00:53:23.375Z,88.29
2022-10-23T00:55:54.057Z,90.31
2022-10-23T00:58:22.394Z,90.59
2022-10-23T01:00:52.197Z,91.56
2022-10-23T01:03:23.277Z,92.91
2022-10-23T01:05:51.207Z,93.50
2022-10-23T01:08:21.958Z,94.60
2022-10-23T01:10:58.962Z,94.41
2022-10-23T01:13:37.233Z,94.52
2022-10-23T01:16:26.015Z,94.93
2022-10-23T01:19:09.898Z,95.32
2022-10-23T01:21:53.003Z,95.21
2022-10-23T01:24:27.208Z,95.73
2022-10-23T01:27:01.723Z,95.40
2022-10-23T01:29:35.912Z,95.20
2022-10-23T01:32:12.921Z,95.63
2022-10-23T01:34:58.751Z,95.61
2022-10-23T01:37:32.582Z,95.59
2022-10-23T01:40:05.735Z,95.43
2022-10-23T01:42:37.795Z,94.41
2022-10-23T01:45:10.165Z,92.85
2022-10-23T01:47:48.111Z,91.86
2022-10-23T01:50:19.892Z,91.31
2022-10-23T01:52:49.238Z,90.58
2022-10-23T01:55:17.838Z,89.63
2022-10-23T01:57:48.058Z,89.11
2022-10-23T02:00:17.930Z,89.38
2022-10-23T02:02:56.183Z,89.12
2022-10-23T02:05:30.600Z,88.82
2022-10-23T02:07:59.416Z,88.79
2022-10-23T02:10:33.955Z,89.62
2022-10-23T02:13:05.051Z,90.67
2022-10-23T02:15:45.411Z,91.26
2022-10-23T02:18:36.850Z,92.38
2022-10-23T02:21:10.575Z,91.62
2022-10-23T02:23:50.385Z,90.94
2022-10-23T02:26:25.705Z,91.45
2022-10-23T02:31:33.943Z,93.61
2022-10-23T02:34:01.958Z,93.59
2022-10-23T02:36:29.990Z,92.87
2022-10-23T02:38:58.754Z,92.30
2022-10-23T02:41:29.401Z,91.56
2022-10-23T02:44:09.696Z,90.29
2022-10-23T02:46:56.565Z,89.39
2022-10-23T02:49:30.876Z,88.91
2022-10-23T02:51:58.853Z,87.84
2022-10-23T02:54:30.416Z,87.30
2022-10-23T02:57:03.692Z,86.39
2022-10-23T02:59:37.610Z,86.15
2022-10-23T03:02:35.278Z,87.06
2022-10-23T03:05:04.574Z,88.25
2022-10-23T03:07:34.661Z,89.44
2022-10-23T03:10:07.027Z,90.72
2022-10-23T03:12:35.033Z,91.06
2022-10-23T03:15:03.444Z,91.67
2022-10-23T03:17:31.383Z,92.64
2022-10-23T03:20:00.776Z,93.20
2022-10-23T03:22:28.853Z,93.55
2022-10-23T03:24:57.131Z,93.87
2022-10-23T03:27:25.152Z,93.82
2022-10-23T03:29:55.832Z,94.41
2022-10-23T03:32:23.913Z,95.19
2022-10-23T03:34:51.966Z,95.77
2022-10-23T03:37:19.979Z,96.63
2022-10-23T03:39:48.003Z,97.95
2022-10-23T03:42:16.004Z,98.63
2022-10-23T03:44:43.915Z,98.94
2022-10-23T03:47:12.316Z,98.76
2022-10-23T03:49:40.395Z,99.43
2022-10-23T03:52:08.257Z,99.06
2022-10-23T03:54:36.255Z,99.10
2022-10-23T03:57:04.059Z,99.16
2022-10-23T03:59:32.261Z,99.51
2022-10-23T04:02:00.704Z,99.87
2022-10-23T04:04:29.093Z,100.00
2022-10-23T04:06:57.139Z,100.00
2022-10-23T04:09:25.471Z,100.00
2022-10-23T04:11:55.672Z,100.00
2022-10-23T04:14:26.943Z,100.00
2022-10-23T04:16:55.206Z,100.00
2022-10-23T04:19:23.277Z,100.00
2022-10-23T04:21:51.124Z,99.95
2022-10-23T04:24:18.998Z,99.64
2022-10-23T04:26:46.830Z,99.61
2022-10-23T04:29:14.931Z,99.19
2022-10-23T04:31:42.796Z,98.91
2022-10-23T04:34:11.106Z,98.07
2022-10-23T04:36:38.975Z,97.45
2022-10-23T04:39:11.369Z,97.64
2022-10-23T04:41:39.191Z,97.59
2022-10-23T04:44:07.686Z,97.39
2022-10-23T04:46:39.004Z,97.07
2022-10-23T04:49:07.375Z,97.20
2022-10-23T04:51:51.008Z,97.49
2022-10-23T04:54:42.351Z,97.57
2022-10-23T04:57:24.245Z,97.75
2022-10-23T05:00:00.306Z,97.81
2022-10-23T05:02:28.587Z,97.61
2022-10-23T05:04:56.655Z,97.35
2022-10-23T05:07:36.730Z,96.61
2022-10-23T05:10:24.939Z,96.56
2022-10-23T05:13:13.226Z,96.58
2022-10-23T05:18:26.734Z,96.09
2022-10-23T05:20:57.494Z,95.39
2022-10-23T05:23:26.871Z,95.37
2022-10-23T05:25:58.596Z,95.35
2022-10-23T05:28:26.493Z,95.50
2022-10-23T05:30:54.850Z,95.07
2022-10-23T05:33:27.342Z,94.97
2022-10-23T05:35:55.718Z,95.11
2022-10-23T05:38:26.459Z,95.26
2022-10-23T05:40:54.790Z,95.24
2022-10-23T05:43:26.189Z,95.14
2022-10-23T05:46:04.195Z,94.81
2022-10-23T05:48:50.378Z,94.71
2022-10-23T05:51:37.913Z,94.46
2022-10-23T05:54:21.531Z,94.36
2022-10-23T05:57:18.810Z,94.57
2022-10-23T05:59:51.139Z,94.03
2022-10-23T06:02:41.446Z,93.56
2022-10-23T06:05:21.099Z,93.04
2022-10-23T06:08:11.876Z,92.08
2022-10-23T06:10:39.871Z,91.24
2022-10-23T06:13:09.072Z,90.44
2022-10-23T06:15:38.482Z,90.00
2022-10-23T06:18:14.737Z,89.33
2022-10-23T06:20:53.184Z,88.84
2022-10-23T06:23:25.284Z,88.05
2022-10-23T06:26:17.037Z,87.40
2022-10-23T06:28:57.868Z,86.84
2022-10-23T06:31:28.381Z,86.22
2022-10-23T06:33:59.364Z,85.56
2022-10-23T06:36:28.136Z,85.15
2022-10-23T06:39:16.375Z,84.66
2022-10-23T06:41:59.224Z,83.43
2022-10-23T06:45:00.387Z,83.08
2022-10-23T06:47:50.660Z,81.93
2022-10-23T06:50:21.292Z,81.57
2022-10-23T06:52:49.729Z,81.11
2022-10-23T06:55:18.867Z,80.83
2022-10-23T06:57:47.306Z,80.11
2022-10-23T07:00:16.013Z,80.53
2022-10-23T07:02:50.145Z,80.41
2022-10-23T07:05:18.184Z,80.15
2022-10-23T07:07:46.348Z,79.90
2022-10-23T07:10:17.943Z,79.74
2022-10-23T07:12:49.288Z,79.68
2022-10-23T07:15:35.797Z,79.34
2022-10-23T07:18:04.680Z,78.46
2022-10-23T07:20:44.322Z,78.53
2022-10-23T07:23:12.932Z,77.98
2022-10-23T07:25:41.182Z,76.73
2022-10-23T07:28:09.973Z,74.44
2022-10-23T07:30:38.272Z,73.20
2022-10-23T07:33:06.933Z,72.91
2022-10-23T07:35:42.549Z,71.62
2022-10-23T07:38:14.218Z,70.41
2022-10-23T07:40:45.551Z,70.22
2022-10-23T07:43:17.543Z,70.62
2022-10-23T07:45:49.621Z,70.71
2022-10-23T07:48:25.564Z,70.87
2022-10-23T07:51:01.729Z,71.62
2022-10-23T07:53:29.969Z,72.61
2022-10-23T07:56:23.378Z,72.80
2022-10-23T07:59:12.326Z,73.14
2022-10-23T08:01:43.081Z,73.22
2022-10-23T08:04:11.392Z,72.94
2022-10-23T08:06:48.322Z,72.42
2022-10-23T08:09:16.404Z,71.81
2022-10-23T08:11:45.052Z,71.79
2022-10-23T08:14:16.157Z,71.87
2022-10-23T08:16:44.238Z,71.61
2022-10-23T08:19:32.694Z,70.72
2022-10-23T08:22:04.000Z,70.93
2022-10-23T08:24:32.070Z,70.54
2022-10-23T08:27:00.111Z,70.81
2022-10-23T08:29:28.748Z,69.81
2022-10-23T08:31:57.703Z,68.87
2022-10-23T08:34:31.659Z,68.23
2022-10-23T08:37:00.359Z,68.68
2022-10-23T08:39:29.073Z,68.68
2022-10-23T08:42:22.312Z,68.63
2022-10-23T08:44:55.220Z,67.29
2022-10-23T08:47:44.219Z,66.50
2022-10-23T08:50:35.258Z,66.82
2022-10-23T08:53:15.552Z,66.63
2022-10-23T08:55:45.444Z,66.91
2022-10-23T08:58:23.671Z,67.84
2022-10-23T09:00:51.797Z,68.49
2022-10-23T09:03:20.135Z,69.34
2022-10-23T09:06:08.909Z,68.56
2022-10-23T09:08:43.497Z,67.88
2022-10-23T09:11:20.256Z,66.92
2022-10-23T09:14:01.460Z,66.54
2022-10-23T09:16:41.586Z,66.07
2022-10-23T09:19:12.198Z,66.30
2022-10-23T09:21:40.510Z,65.96
2022-10-23T09:24:18.926Z,66.08
2022-10-23T09:26:50.550Z,66.22
2022-10-23T09:29:27.763Z,66.65
2022-10-23T09:31:57.421Z,66.77
2022-10-23T09:34:26.669Z,66.29
2022-10-23T09:37:02.115Z,64.88
2022-10-23T09:39:31.415Z,64.90
2022-10-23T09:42:02.475Z,63.41
2022-10-23T09:44:31.528Z,62.77
2022-10-23T09:47:01.463Z,61.51
2022-10-23T09:49:31.275Z,60.10
2022-10-23T09:52:08.462Z,59.74
2022-10-23T09:54:38.289Z,57.76
2022-10-23T09:57:15.948Z,56.09
2022-10-23T09:59:43.879Z,55.87
2022-10-23T10:02:27.077Z,54.13
2022-10-23T10:05:23.921Z,51.98
2022-10-23T10:08:10.829Z,50.99
2022-10-23T10:10:41.630Z,51.39
2022-10-23T10:13:22.297Z,51.43
2022-10-23T10:15:53.468Z,51.82
2022-10-23T10:18:28.777Z,52.24
2022-10-23T10:20:59.543Z,51.58
2022-10-23T10:23:27.410Z,51.55
2022-10-23T10:26:13.920Z,51.22
2022-10-23T10:28:42.024Z,51.52
2022-10-23T10:31:10.221Z,51.63
2022-10-23T10:33:38.215Z,51.97
2022-10-23T10:38:57.532Z,55.13
2022-10-23T10:41:28.658Z,55.07
2022-10-23T10:44:15.669Z,55.45
2022-10-23T10:46:46.580Z,55.21
2022-10-23T10:49:29.064Z,54.37
2022-10-23T10:52:15.944Z,51.90
2022-10-23T10:54:53.648Z,51.36
2022-10-23T10:57:21.497Z,51.55
2022-10-23T10:59:51.336Z,51.54
2022-10-23T11:02:23.886Z,50.60
2022-10-23T11:04:56.356Z,50.63
2022-10-23T11:07:28.053Z,50.59
2022-10-23T11:09:59.092Z,52.01
2022-10-23T11:12:27.795Z,53.42
2022-10-23T11:14:56.731Z,54.18
2022-10-23T11:17:39.264Z,54.18
2022-10-23T11:20:10.079Z,54.83
2022-10-23T11:22:53.403Z,54.68
2022-10-23T11:25:21.350Z,53.42
2022-10-23T11:28:10.305Z,53.13
2022-10-23T11:31:12.232Z,53.73
2022-10-23T11:33:42.599Z,54.07
2022-10-23T11:36:19.555Z,54.05
2022-10-23T11:38:49.758Z,54.01
2022-10-23T11:41:22.351Z,52.41
2022-10-23T11:43:55.607Z,50.99
2022-10-23T11:46:23.662Z,51.32
2022-10-23T11:48:52.330Z,51.30
2022-10-23T11:51:27.688Z,51.03
2022-10-23T11:54:06.100Z,51.52
2022-10-23T11:56:34.476Z,51.61
2022-10-23T11:59:21.185Z,52.55
2022-10-23T12:01:50.817Z,53.34
2022-10-23T12:04:22.495Z,53.95
2022-10-23T12:07:00.073Z,54.68
2022-10-23T12:09:37.846Z,55.04
2022-10-23T12:12:06.013Z,55.26
2022-10-23T12:14:35.830Z,55.64
2022-10-23T12:17:19.154Z,55.06
2022-10-23T12:19:48.822Z,54.87
2022-10-23T12:22:17.410Z,54.85
2022-10-23T12:24:51.530Z,53.78
2022-10-23T12:27:31.922Z,53.04
2022-10-23T12:30:18.626Z,52.79
2022-10-23T12:33:06.767Z,52.52
2022-10-23T12:35:48.979Z,52.69
2022-10-23T12:38:16.961Z,53.08
2022-10-23T12:40:45.514Z,53.55
2022-10-23T12:43:23.733Z,52.51
2022-10-23T12:45:52.315Z,52.75
2022-10-23T12:48:22.128Z,52.46
2022-10-23T12:50:53.685Z,52.36
2022-10-23T12:53:23.395Z,51.17
2022-10-23T12:55:54.810Z,51.21
2022-10-23T12:58:30.237Z,51.67
2022-10-23T13:01:02.069Z,51.28
2022-10-23T13:03:31.892Z,51.55
2022-10-23T13:06:04.702Z,51.47
2022-10-23T13:08:35.161Z,51.96
2022-10-23T13:11:22.267Z,52.82
2022-10-23T13:13:51.140Z,53.77
2022-10-23T13:16:21.432Z,54.61
2022-10-23T13:18:49.660Z,54.89
2022-10-23T13:21:24.464Z,55.32
2022-10-23T13:23:52.980Z,55.82
2022-10-23T13:26:25.762Z,56.06
2022-10-23T13:28:53.933Z,56.76
2022-10-23T13:31:21.869Z,56.90
2022-10-23T13:33:54.762Z,56.93
2022-10-23T13:36:24.264Z,57.41
2022-10-23T13:39:01.682Z,57.70
2022-10-23T13:41:35.815Z,58.27
2022-10-23T13:44:04.553Z,57.69
2022-10-23T13:46:32.903Z,56.67
2022-10-23T13:49:00.927Z,56.84
2022-10-23T13:51:30.537Z,57.74
2022-10-23T13:53:59.013Z,57.35
2022-10-23T13:56:27.905Z,56.45
2022-10-23T13:58:55.874Z,56.89
2022-10-23T14:01:26.402Z,56.14
2022-10-23T14:03:55.117Z,55.11
2022-10-23T14:06:23.773Z,56.14
2022-10-23T14:08:52.359Z,57.60
2022-10-23T14:11:20.324Z,57.77
2022-10-23T14:13:48.876Z,58.29
2022-10-23T14:16:18.146Z,58.18
2022-10-23T14:18:46.177Z,58.39
2022-10-23T14:21:15.476Z,59.27
2022-10-23T14:23:43.553Z,60.20
2022-10-23T14:26:16.855Z,60.11
2022-10-23T14:28:44.857Z,60.72
2022-10-23T14:31:14.012Z,61.88
2022-10-23T14:33:41.979Z,62.68
2022-10-23T14:36:10.497Z,63.01
2022-10-23T14:38:38.426Z,63.60
2022-10-23T14:41:10.828Z,64.33
2022-10-23T14:43:39.403Z,64.75
2022-10-23T14:46:11.722Z,65.38
2022-10-23T14:48:40.130Z,65.57
2022-10-23T14:51:16.107Z,66.24
2022-10-23T14:53:44.159Z,66.54
2022-10-23T14:56:11.996Z,67.31
2022-10-23T14:58:39.943Z,67.99
2022-10-23T15:01:08.823Z,68.58
2022-10-23T15:03:37.415Z,68.61
2022-10-23T15:06:06.972Z,69.42
2022-10-23T15:08:35.654Z,69.40
2022-10-23T15:11:06.626Z,69.91
2022-10-23T15:13:37.057Z,69.74
2022-10-23T15:16:06.122Z,70.32
2022-10-23T15:21:09.734Z,71.79
2022-10-23T15:23:40.204Z,71.94
2022-10-23T15:26:10.446Z,72.74
2022-10-23T15:28:38.553Z,74.72
2022-10-23T15:31:06.828Z,74.05
2022-10-23T15:33:34.999Z,74.54
2022-10-23T15:36:03.033Z,74.64
2022-10-23T15:38:31.208Z,73.76
2022-10-23T15:41:13.616Z,72.88
2022-10-23T15:43:41.653Z,73.45
2022-10-23T15:46:09.633Z,73.25
2022-10-23T15:48:37.657Z,73.49
2022-10-23T15:51:05.697Z,73.08
2022-10-23T15:53:33.652Z,73.00
2022-10-23T15:56:01.768Z,73.42
2022-10-23T15:58:29.765Z,74.90
2022-10-23T16:00:57.900Z,74.51
2022-10-23T16:03:26.187Z,74.42
2022-10-23T16:05:54.050Z,74.83
2022-10-23T16:08:22.837Z,75.78
2022-10-23T16:10:50.596Z,76.21
2022-10-23T16:13:18.386Z,75.98
2022-10-23T16:15:46.542Z,75.53
2022-10-23T16:18:16.247Z,74.64
2022-10-23T16:20:44.218Z,74.22
2022-10-23T16:23:12.215Z,74.03
2022-10-23T16:25:40.155Z,73.61
2022-10-23T16:28:08.323Z,73.62
2022-10-23T16:30:40.289Z,74.52
2022-10-23T16:33:08.459Z,75.25
2022-10-23T16:35:37.149Z,74.20
2022-10-23T16:38:08.901Z,75.16
2022-10-23T16:40:36.769Z,74.13
2022-10-23T16:43:24.091Z,74.36
2022-10-23T16:46:08.753Z,73.99
2022-10-23T16:48:36.904Z,75.63
2022-10-23T16:51:05.734Z,76.41
2022-10-23T16:53:33.886Z,76.42
2022-10-23T16:56:04.202Z,76.34
2022-10-23T16:58:32.794Z,76.93
2022-10-23T17:01:02.408Z,76.98
2022-10-23T17:03:30.691Z,76.90
2022-10-23T17:06:04.158Z,76.69
2022-10-23T17:08:34.681Z,75.91
2022-10-23T17:11:10.632Z,76.03
2022-10-23T17:13:40.469Z,75.65
2022-10-23T17:16:10.616Z,75.06
2022-10-23T17:18:42.874Z,75.22
2022-10-23T17:21:13.116Z,74.66
2022-10-23T17:23:41.764Z,74.12
2022-10-23T17:26:10.904Z,73.74
2022-10-23T17:28:42.579Z,74.05
2022-10-23T17:31:14.238Z,74.06
2022-10-23T17:33:42.444Z,74.28
2022-10-23T17:36:10.950Z,74.57
2022-10-23T17:38:39.827Z,74.69
2022-10-23T17:41:08.414Z,74.40
2022-10-23T17:43:36.730Z,74.44
2022-10-23T17:46:05.556Z,74.68
2022-10-23T17:48:34.352Z,75.06
2022-10-23T17:51:03.540Z,74.01
2022-10-23T17:53:31.562Z,74.35
2022-10-23T17:56:01.223Z,74.35
2022-10-23T17:58:29.302Z,74.28
2022-10-23T18:00:57.313Z,74.52
2022-10-23T18:03:25.284Z,74.18
2022-10-23T18:05:53.330Z,75.04
2022-10-23T18:08:21.102Z,75.83
2022-10-23T18:10:49.335Z,76.13
2022-10-23T18:13:17.614Z,76.37
2022-10-23T18:15:45.396Z,76.58
2022-10-23T18:18:13.240Z,76.66
2022-10-23T18:20:42.066Z,76.66
2022-10-23T18:23:09.922Z,75.63
2022-10-23T18:25:42.188Z,75.98
2022-10-23T18:28:10.130Z,76.93
2022-10-23T18:33:11.176Z,75.04
2022-10-23T18:35:38.967Z,75.04
2022-10-23T18:38:07.408Z,75.29
2022-10-23T18:40:36.198Z,75.07
2022-10-23T18:43:07.008Z,76.87
2022-10-23T18:45:37.583Z,77.41
2022-10-23T18:48:05.774Z,77.78
2022-10-23T18:50:36.255Z,79.34
2022-10-23T18:53:04.455Z,79.56
2022-10-23T18:58:04.999Z,79.92
2022-10-23T19:00:33.173Z,79.95
2022-10-23T19:03:01.021Z,79.69
2022-10-23T19:05:28.847Z,79.86
2022-10-23T19:07:56.723Z,80.12
2022-10-23T19:10:26.845Z,79.98
2022-10-23T19:12:54.838Z,79.82
2022-10-23T19:15:22.970Z,79.70
2022-10-23T19:17:54.064Z,78.73
2022-10-23T19:20:22.558Z,77.24
2022-10-23T19:22:51.852Z,76.55
2022-10-23T19:25:21.665Z,76.89
2022-10-23T19:27:49.732Z,77.21
2022-10-23T19:30:21.905Z,77.71
2022-10-23T19:32:51.234Z,78.51
2022-10-23T19:35:20.606Z,80.13
2022-10-23T19:37:48.677Z,80.08
2022-10-23T19:40:16.724Z,80.33
2022-10-23T19:42:44.614Z,81.47
2022-10-23T19:45:13.962Z,80.18
2022-10-23T19:47:42.745Z,80.84
2022-10-23T19:50:10.873Z,80.32
2022-10-23T19:52:39.247Z,79.65
2022-10-23T19:55:08.972Z,79.41
2022-10-23T19:57:37.270Z,79.49
2022-10-23T20:00:06.603Z,79.25
2022-10-23T20:02:38.364Z,79.24
2022-10-23T20:05:06.860Z,79.29
2022-10-23T20:07:36.090Z,78.99
2022-10-23T20:10:06.037Z,78.68
2022-10-23T20:12:34.703Z,79.07
2022-10-23T20:15:02.824Z,78.82
2022-10-23T20:17:31.010Z,78.48
2022-10-23T20:19:58.978Z,77.59
2022-10-23T20:22:27.018Z,78.91
2022-10-23T20:24:54.875Z,79.10
2022-10-23T20:27:23.024Z,78.04
2022-10-23T20:29:50.952Z,77.10
2022-10-23T20:32:18.873Z,76.24
2022-10-23T20:34:46.789Z,75.74
2022-10-23T20:37:14.726Z,75.68
2022-10-23T20:39:43.463Z,75.85
2022-10-23T20:42:11.588Z,76.26
2022-10-23T20:44:39.525Z,76.90
2022-10-23T20:47:07.511Z,78.77
2022-10-23T20:49:35.386Z,77.77
2022-10-23T20:52:03.587Z,78.08
2022-10-23T20:54:32.010Z,78.33
2022-10-23T20:56:59.935Z,77.86
2022-10-23T20:59:28.024Z,75.87
2022-10-23T21:01:56.488Z,76.44
2022-10-23T21:04:26.726Z,75.58
2022-10-23T21:07:11.368Z,75.05
2022-10-23T21:09:40.168Z,76.16
2022-10-23T21:12:09.233Z,76.43
2022-10-23T21:14:37.330Z,76.16
2022-10-23T21:17:05.592Z,76.88
2022-10-23T21:19:33.483Z,76.83
2022-10-23T21:22:01.330Z,76.87
2022-10-23T21:24:29.181Z,76.46
2022-10-23T21:26:57.336Z,76.39
2022-10-23T21:29:25.152Z,76.04
2022-10-23T21:31:54.442Z,76.98
2022-10-23T21:34:22.983Z,77.21
2022-10-23T21:39:38.914Z,78.52
2022-10-23T21:42:06.981Z,78.49
2022-10-23T21:44:35.145Z,78.23
2022-10-23T21:47:03.636Z,78.03
2022-10-23T21:49:32.106Z,77.21
2022-10-23T21:52:01.824Z,77.37
2022-10-23T21:54:29.792Z,77.10
2022-10-23T21:56:57.760Z,76.98
2022-10-23T21:59:28.887Z,77.04
2022-10-23T22:02:00.337Z,76.60
2022-10-23T22:04:28.331Z,75.72
2022-10-23T22:06:56.395Z,75.77
2022-10-23T22:09:24.641Z,76.03
2022-10-23T22:11:53.412Z,75.52
2022-10-23T22:14:22.988Z,77.45
2022-10-23T22:16:52.276Z,77.42
2022-10-23T22:19:21.712Z,77.38
2022-10-23T22:21:50.659Z,77.66
2022-10-23T22:24:19.087Z,78.16
2022-10-23T22:26:48.428Z,78.67
2022-10-23T22:29:18.329Z,79.09
2022-10-23T22:31:49.688Z,79.95
2022-10-23T22:34:27.045Z,80.33
2022-10-23T22:37:09.078Z,79.52
2022-10-23T22:39:37.150Z,79.18
2022-10-23T22:42:05.449Z,79.23
2022-10-23T22:44:33.508Z,79.65
2022-10-23T22:47:01.359Z,77.42
2022-10-23T22:49:29.327Z,76.94
2022-10-23T22:51:57.151Z,75.65
2022-10-23T22:54:25.266Z,75.45
2022-10-23T22:56:53.555Z,76.66
2022-10-23T22:59:21.466Z,77.69
2022-10-23T23:01:50.432Z,77.88
2022-10-23T23:07:08.130Z,77.02
2022-10-23T23:09:43.114Z,76.06
2022-10-23T23:12:12.275Z,75.87
2022-10-23T23:14:40.652Z,76.84
2022-10-23T23:17:09.032Z,75.51
2022-10-23T23:19:36.813Z,75.57
2022-10-23T23:22:05.066Z,74.41
2022-10-23T23:24:33.153Z,75.62
2022-10-23T23:27:01.230Z,74.53
2022-10-23T23:29:29.761Z,73.81
2022-10-23T23:31:57.957Z,73.73
2022-10-23T23:34:25.820Z,74.28
2022-10-23T23:36:53.898Z,73.00
2022-10-23T23:39:21.765Z,72.92
2022-10-23T23:41:49.629Z,73.21
2022-10-23T23:44:17.883Z,72.39
2022-10-23T23:46:45.907Z,72.26
2022-10-23T23:49:13.864Z,73.04
2022-10-23T23:51:42.116Z,73.23
2022-10-23T23:54:10.185Z,73.88
2022-10-23T23:56:38.130Z,74.24
2022-10-23T23:59:06.531Z,74.05
